Latest Coastal Weather Observations for Hobart

IDT60701

Issued at 6:22 am EST Monday 29 May 2017 (issued every 10 minutes, with the page automatically refreshed every 10 minutes)

About coastal observations | Map of coastal stations | Coastal observations for TAS | Marine services | Other Formats
Station Details ID: 094029 Name: HOBART (ELLERSLIE ROAD) Lat: -42.89 Lon: 147.33 Height: 50.5 m
Data from the previous 72 hours. | See also: Recent months at Hobart
Date/Time
EST
Temp
°C
Wind Pressure Rain since
9am
mm
Weather Cloud Vis
km
Sea
Height
m
Swell
Dir  Spd
kts
Gust
kts
hPa Trend Height
m
Period
s
Dir
29/06:00am 5.9 WSW 5 7 1008.7 - 0.0 - - - - - - -
29/05:30am 6.3 WNW 5 10 1008.5 - 0.0 - - - - - - -
29/05:00am 5.4 W 5 8 1008.2 - 0.0 - - - - - - -
29/04:30am 6.4 SW 4 7 1007.8 - 0.0 - - - - - - -
29/04:00am 6.4 W 6 9 1007.4 - 0.0 - - - - - - -
29/03:30am 6.9 WNW 5 10 1007.3 - 0.0 - - - - - - -
29/03:00am 7.1 WSW 5 9 1007.1 - 0.0 - - - - - - -
29/02:30am 7.1 N 2 5 1007.0 - 0.0 - - - - - - -
29/02:00am 7.1 NNE 4 7 1006.8 - 0.0 - - - - - - -
29/01:30am 5.7 W 6 8 1006.5 - 0.0 - - - - - - -
29/01:00am 5.8 W 5 8 1006.5 - 0.0 - - - - - - -
29/12:30am 7.2 NW 7 11 1006.4 - 0.0 - - - - - - -
29/12:00am 7.3 NNE 7 10 1006.2 - 0.0 - - - - - - -
 
Date/Time
EST
Temp
°C
Wind Pressure Rain since
9am
mm
Weather Cloud Vis
km
Sea
Height
m
Swell
Dir  Spd
kts
Gust
kts
hPa Trend Height
m
Period
s
Dir
28/11:30pm 7.8 WNW 11 16 1006.1 - 0.0 - - - - - - -
28/11:00pm 7.5 SSW 5 8 1006.0 - 0.0 - - - - - - -
28/10:30pm 7.0 NW 7 11 1005.7 - 0.0 - - - - - - -
28/10:00pm 6.9 W 6 8 1005.6 - 0.0 - - - - - - -
28/09:30pm 8.0 S 4 5 1005.5 - 0.0 - - - - - - -
28/09:00pm 7.0 NNE 3 5 1005.3 - 0.0 - - - - - - -
28/08:30pm 8.2 S 2 4 1004.8 - 0.0 - - - - - - -
28/08:00pm 9.1 NE 7 11 1004.4 - 0.0 - - - - - - -
28/07:30pm 8.8 WSW 5 7 1004.3 - 0.0 - - - - - - -
28/07:00pm 9.3 W 7 11 1003.7 - 0.0 - - - - - - -
28/06:30pm 9.8 S 4 7 1003.1 - 0.0 - - - - - - -
28/06:00pm 10.6 WSW 8 12 1002.6 - 0.0 - - - - - - -
28/05:30pm 10.4 SW 10 15 1002.0 - 0.0 - - - - - - -
28/05:00pm 10.7 SSW 9 13 1001.9 - 0.0 - - - - - - -
28/04:30pm 11.0 SSW 7 9 1001.5 - 0.0 - - - - - - -
28/04:00pm 12.0 S 4 10 1001.1 - 0.0 - - - - - - -
28/03:30pm 12.0 NW 7 9 1000.5 - 0.0 - - - - - - -
28/03:00pm 12.3 SSE 1 5 1000.4 - 0.0 - - - - - - -
28/02:30pm 12.2 NNE 2 4 1000.1 - 0.0 - - - - - - -
28/02:00pm 12.2 NNW 5 7 999.9 - 0.0 - - - - - - -
28/01:30pm 12.0 NW 6 9 1000.0 - 0.0 - - - - - - -
28/01:00pm 11.9 NNE 2 5 999.7 - 0.0 - - - - - - -
28/12:30pm 11.2 CALM 0 0 999.6 - 0.0 - - - - - - -
28/12:00pm 11.2 NNW 4 6 999.9 - 0.0 - - - - - - -
28/11:30am 11.1 NNW 5 7 1000.1 - 0.0 - - - - - - -
28/11:00am 10.9 WNW 1 4 1000.3 - 0.0 - - - - - - -
28/10:30am 10.8 NNW 1 5 1000.5 - 0.0 - - - - - - -
28/10:00am 10.3 W 1 4 1000.4 - 0.0 - - - - - - -
28/09:30am 10.2 SSW 1 4 1000.4 - 0.0 - - - - - - -
28/09:00am 10.5 WNW 6 9 1000.5 - 2.6 - - - - - - -
28/08:30am 10.0 WNW 5 7 1000.3 - 2.6 - - - - - - -
28/08:00am 9.7 WNW 5 7 1000.2 - 2.6 - - - - - - -
28/07:30am 9.8 W 2 5 1000.2 - 2.6 - - - - - - -
28/07:00am 9.9 NNW 11 15 999.8 - 2.6 - - - - - - -
28/06:30am 9.8 NW 6 7 1000.0 - 2.6 - - - - - - -
28/06:00am 9.6 NW 5 6 999.8 - 2.6 Recent precip. - - - - - -
28/05:30am 9.6 CALM 0 0 999.7 - 2.6 - - - - - - -
28/05:00am 9.7 ENE 1 4 999.9 - 2.4 - - - - - - -
28/04:30am 9.9 NW 5 6 999.8 - 2.4 - - - - - - -
28/04:00am 10.0 NW 6 8 1000.0 - 2.4 - - - - - - -
28/03:30am 10.0 NW 7 8 1000.4 - 2.2 - - - - - - -
28/03:00am 10.0 WNW 5 6 1001.0 - 2.2 Recent precip. - - - - - -
28/02:30am 10.6 N 3 4 1001.1 - 2.2 - - - - - - -
28/02:00am 11.4 N 9 13 1001.7 - 2.0 - - - - - - -
28/01:30am 11.8 NW 8 13 1002.0 - 1.6 - - - - - - -
28/01:00am 12.0 NW 7 12 1002.3 - 1.4 - - - - - - -
28/12:30am 12.2 N 7 11 1002.5 - 1.2 - - - - - - -
28/12:00am 12.2 NNW 6 9 1003.1 - 1.2 Rain - - - - - -
 
Date/Time
EST
Temp
°C
Wind Pressure Rain since
9am
mm
Weather Cloud Vis
km
Sea
Height
m
Swell
Dir  Spd
kts
Gust
kts
hPa Trend Height
m
Period
s
Dir
27/11:30pm 12.9 NNW 9 13 1003.3 - 0.8 - - - - - - -
27/11:00pm 13.5 NNW 9 12 1003.3 - 0.2 - - - - - - -
27/10:30pm 13.8 NNW 9 13 1003.3 - 0.0 - - - - - - -
27/10:00pm 14.0 NNW 12 17 1003.5 - 0.0 - - - - - - -
27/09:30pm 14.0 NNW 10 16 1003.9 - 0.0 - - - - - - -
27/09:00pm 13.9 NNW 9 13 1004.0 - 0.0 - - - - - - -
27/08:30pm 14.6 NNW 6 12 1004.1 - 0.0 - - - - - - -
27/08:00pm 14.9 NNW 8 15 1004.4 - 0.0 - - - - - - -
27/07:30pm 14.9 NNW 7 13 1004.7 - 0.0 - - - - - - -
27/07:00pm 14.4 S 5 7 1005.0 - 0.0 - - - - - - -
27/06:30pm 15.3 N 7 10 1005.1 - 0.0 - - - - - - -
27/06:00pm 15.8 N 10 15 1005.1 - 0.0 - - - - - - -
27/05:30pm 16.0 N 11 19 1005.2 - 0.0 - - - - - - -
27/05:12pm 16.4 NNW 15 26 1005.1 - 0.0 - - - - - - -
27/05:00pm 16.0 N 11 17 1005.3 - 0.0 - - - - - - -
27/04:30pm 14.0 N 3 6 1005.5 - 0.0 - - - - - - -
27/04:00pm 13.6 ESE 2 6 1005.6 - 0.0 - - - - - - -
27/03:30pm 14.3 S 2 5 1006.0 - 0.0 - - - - - - -
27/03:00pm 13.3 SW 3 5 1006.3 - 0.0 - - - - - - -
27/02:30pm 13.0 CALM 0 0 1006.8 - 0.0 - - - - - - -
27/02:00pm 12.7 CALM 0 0 1007.2 - 0.0 - - - - - - -
27/01:30pm 11.6 E 2 4 1007.8 - 0.0 - - - - - - -
27/01:00pm 11.2 N 4 6 1008.2 - 0.0 - - - - - - -
27/12:30pm 10.1 NW 8 11 1008.9 - 0.0 - - - - - - -
27/12:00pm 9.6 NNW 12 15 1009.4 - 0.0 - - - - - - -
27/11:30am 9.9 NNW 10 14 1010.0 - 0.0 - - - - - - -
27/11:00am 9.5 W 3 8 1010.6 - 0.0 - - - - - - -
27/10:30am 8.6 S 1 6 1011.1 - 0.0 - - - - - - -
27/10:00am 7.7 WSW 3 4 1011.5 - 0.0 - - - - - - -
27/09:30am 7.8 NNW 9 13 1011.9 - 0.0 - - - - - - -
27/09:00am 6.4 NNW 7 11 1012.4 - 0.0 - - - - - - -
27/08:30am 5.5 NNW 7 10 1012.8 - 0.0 - - - - - - -
27/08:00am 5.0 N 4 7 1013.1 - 0.0 - - - - - - -
27/07:30am 4.7 NW 3 5 1013.1 - 0.0 - - - - - - -
27/07:00am 4.6 NNW 3 6 1013.3 - 0.0 - - - - - - -
27/06:30am 5.3 NNW 7 9 1013.3 - 0.0 - - - - - - -
27/06:00am 5.8 NNW 7 10 1013.5 - 0.0 - - - - - - -
27/05:30am 5.7 NNW 7 10 1014.0 - 0.0 - - - - - - -
27/05:00am 5.7 NW 8 10 1014.2 - 0.0 - - - - - - -
27/04:30am 5.3 NW 7 10 1014.2 - 0.0 - - - - - - -
27/04:00am 5.7 NW 10 14 1014.2 - 0.0 - - - - - - -
27/03:30am 6.0 NW 11 16 1014.3 - 0.0 - - - - - - -
27/03:00am 6.0 NNW 11 15 1014.6 - 0.0 - - - - - - -
27/02:30am 5.7 NW 9 14 1014.9 - 0.0 - - - - - - -
27/02:00am 5.5 NW 9 13 1015.2 - 0.0 - - - - - - -
27/01:30am 6.0 NW 9 14 1015.5 - 0.0 - - - - - - -
27/01:00am 6.1 NW 9 12 1015.8 - 0.0 - - - - - - -
27/12:30am 6.5 NNW 7 10 1016.5 - 0.0 - - - - - - -
27/12:00am 6.8 NNW 8 11 1016.8 - 0.0 - - - - - - -
 
Date/Time
EST
Temp
°C
Wind Pressure Rain since
9am
mm
Weather Cloud Vis
km
Sea
Height
m
Swell
Dir  Spd
kts
Gust
kts
hPa Trend Height
m
Period
s
Dir
26/11:30pm 7.1 NNW 7 12 1016.9 - 0.0 - - - - - - -
26/11:00pm 7.6 NNW 7 9 1016.9 - 0.0 - - - - - - -
26/10:30pm 7.9 NNW 9 12 1017.0 - 0.0 - - - - - - -
26/10:00pm 8.3 NNW 10 13 1017.1 - 0.0 - - - - - - -
26/09:30pm 8.6 NNW 9 12 1017.4 - 0.0 - - - - - - -
26/09:00pm 8.5 N 4 6 1017.5 - 0.0 - - - - - - -
26/08:30pm 8.6 NE 4 7 1017.8 - 0.0 - - - - - - -
26/08:00pm 8.9 NNE 3 5 1017.9 - 0.0 - - - - - - -
26/07:30pm 8.5 NW 5 6 1017.8 - 0.0 - - - - - - -
26/07:00pm 8.5 WNW 4 5 1017.9 - 0.0 - - - - - - -
26/06:30pm 9.3 NW 3 5 1017.7 - 0.0 - - - - - - -
26/06:00pm 10.0 W 4 7 1017.6 - 0.0 - - - - - - -
26/05:30pm 11.7 WNW 8 11 1017.2 - 0.0 - - - - - - -
26/05:00pm 12.1 WNW 8 12 1017.1 - 0.0 - - - - - - -
26/04:30pm 13.0 NW 13 18 1016.8 - 0.0 - - - - - - -
26/04:00pm 13.4 NNW 11 14 1016.8 - 0.0 - - - - - - -
26/03:30pm 13.5 WNW 9 17 1016.7 - 0.0 - - - - - - -
26/03:00pm 13.8 NW 11 15 1016.6 - 0.0 - - - - - - -
26/02:30pm 14.4 N 10 14 1016.6 - 0.0 - - - - - - -
26/02:00pm 14.5 N 10 16 1016.7 - 0.0 - - - - - - -
26/01:30pm 14.0 NNE 7 11 1016.9 - 0.0 - - - - - - -
26/01:00pm 14.7 NW 11 17 1017.0 - 0.0 - - - - - - -
26/12:30pm 13.9 NW 12 19 1017.1 - 0.0 - - - - - - -
26/12:00pm 14.1 NNW 10 17 1017.2 - 0.0 - - - - - - -
26/11:30am 13.9 NW 10 15 1017.6 - 0.0 - - - - - - -
26/11:00am 13.8 NNW 8 12 1018.0 - 0.0 - - - - - - -
26/10:30am 12.5 NW 6 10 1018.0 - 0.0 - - - - - - -
26/10:00am 12.9 WNW 5 8 1017.9 - 0.0 - - - - - - -
26/09:30am 11.1 ESE 2 5 1017.6 - 0.0 - - - - - - -
26/09:00am 11.2 W 8 15 1017.6 - 0.0 - - - - - - -
26/08:30am 10.3 WNW 10 16 1017.2 - 0.0 - - - - - - -
26/08:00am 9.1 SSW 5 7 1016.9 - 0.0 - - - - - - -
26/07:30am 9.2 WNW 11 17 1016.4 - 0.0 - - - - - - -
26/07:00am 8.8 W 8 11 1016.2 - 0.0 - - - - - - -
26/06:30am 9.2 WNW 7 12 1015.8 - 0.0 - - - - - - -

Other Formats:

Comma delimited format used in spreadsheet applications
http://www.bom.gov.au/fwo/IDT60701/IDT60701.94970.axf

JavaScript Object Notation format (JSON) in row-major order
http://www.bom.gov.au/fwo/IDT60701/IDT60701.94970.json